sensor_id;sensor_type;location;lat;lon;timestamp;P1;durP1;ratioP1;P2;durP2;ratioP2
66559;SDS011;53413;49.878;8.142;2022-10-31T00:02:02;28.30;;;11.00;;
66559;SDS011;53413;49.878;8.142;2022-10-31T00:04:28;27.53;;;10.63;;
66559;SDS011;53413;49.878;8.142;2022-10-31T00:06:53;26.17;;;11.13;;
66559;SDS011;53413;49.878;8.142;2022-10-31T00:09:18;30.17;;;11.70;;
66559;SDS011;53413;49.878;8.142;2022-10-31T00:11:44;25.53;;;10.60;;
66559;SDS011;53413;49.878;8.142;2022-10-31T00:14:09;22.45;;;9.77;;
66559;SDS011;53413;49.878;8.142;2022-10-31T00:16:34;24.07;;;9.67;;
66559;SDS011;53413;49.878;8.142;2022-10-31T00:19:01;19.87;;;9.30;;
66559;SDS011;53413;49.878;8.142;2022-10-31T00:21:28;20.65;;;9.15;;
66559;SDS011;53413;49.878;8.142;2022-10-31T00:23:55;21.30;;;9.23;;
66559;SDS011;53413;49.878;8.142;2022-10-31T00:26:21;23.08;;;9.70;;
66559;SDS011;53413;49.878;8.142;2022-10-31T00:28:47;23.23;;;9.93;;
66559;SDS011;53413;49.878;8.142;2022-10-31T00:31:13;23.00;;;9.88;;
66559;SDS011;53413;49.878;8.142;2022-10-31T00:33:38;23.53;;;10.27;;
66559;SDS011;53413;49.878;8.142;2022-10-31T00:36:05;26.00;;;10.65;;
66559;SDS011;53413;49.878;8.142;2022-10-31T00:38:32;27.40;;;11.18;;
66559;SDS011;53413;49.878;8.142;2022-10-31T00:40:58;31.23;;;12.40;;
66559;SDS011;53413;49.878;8.142;2022-10-31T00:43:23;32.22;;;12.25;;
66559;SDS011;53413;49.878;8.142;2022-10-31T00:45:49;29.70;;;11.63;;
66559;SDS011;53413;49.878;8.142;2022-10-31T00:48:15;28.13;;;10.68;;
66559;SDS011;53413;49.878;8.142;2022-10-31T00:50:40;29.37;;;12.07;;
66559;SDS011;53413;49.878;8.142;2022-10-31T00:53:05;31.47;;;12.13;;
66559;SDS011;53413;49.878;8.142;2022-10-31T00:55:31;26.35;;;11.55;;
66559;SDS011;53413;49.878;8.142;2022-10-31T00:57:57;30.90;;;12.07;;
66559;SDS011;53413;49.878;8.142;2022-10-31T01:00:22;24.87;;;10.27;;
66559;SDS011;53413;49.878;8.142;2022-10-31T01:02:48;24.43;;;10.37;;
66559;SDS011;53413;49.878;8.142;2022-10-31T01:05:13;23.48;;;10.23;;
66559;SDS011;53413;49.878;8.142;2022-10-31T01:07:39;27.57;;;11.50;;
66559;SDS011;53413;49.878;8.142;2022-10-31T01:10:06;25.50;;;10.45;;
66559;SDS011;53413;49.878;8.142;2022-10-31T01:12:36;29.75;;;11.27;;
66559;SDS011;53413;49.878;8.142;2022-10-31T01:15:05;25.70;;;10.60;;
66559;SDS011;53413;49.878;8.142;2022-10-31T01:17:32;26.35;;;10.45;;
66559;SDS011;53413;49.878;8.142;2022-10-31T01:19:57;26.87;;;10.50;;
66559;SDS011;53413;49.878;8.142;2022-10-31T01:22:23;26.73;;;10.83;;
66559;SDS011;53413;49.878;8.142;2022-10-31T01:24:48;24.93;;;10.13;;
66559;SDS011;53413;49.878;8.142;2022-10-31T01:27:13;25.03;;;10.70;;
66559;SDS011;53413;49.878;8.142;2022-10-31T01:29:38;23.93;;;10.73;;
66559;SDS011;53413;49.878;8.142;2022-10-31T01:32:04;24.70;;;9.83;;
66559;SDS011;53413;49.878;8.142;2022-10-31T01:34:29;23.05;;;9.73;;
66559;SDS011;53413;49.878;8.142;2022-10-31T01:36:55;22.03;;;9.50;;
66559;SDS011;53413;49.878;8.142;2022-10-31T01:39:20;24.20;;;10.20;;
66559;SDS011;53413;49.878;8.142;2022-10-31T01:41:50;23.67;;;9.13;;
66559;SDS011;53413;49.878;8.142;2022-10-31T01:46:46;23.23;;;9.03;;
66559;SDS011;53413;49.878;8.142;2022-10-31T01:49:23;22.40;;;8.80;;
66559;SDS011;53413;49.878;8.142;2022-10-31T01:54:59;24.08;;;8.13;;
66559;SDS011;53413;49.878;8.142;2022-10-31T01:57:28;23.90;;;8.73;;
66559;SDS011;53413;49.878;8.142;2022-10-31T01:59:57;23.48;;;8.35;;
66559;SDS011;53413;49.878;8.142;2022-10-31T02:02:27;19.33;;;8.60;;
66559;SDS011;53413;49.878;8.142;2022-10-31T02:04:55;19.57;;;7.93;;
66559;SDS011;53413;49.878;8.142;2022-10-31T02:07:25;21.45;;;7.88;;
66559;SDS011;53413;49.878;8.142;2022-10-31T02:09:55;22.83;;;7.80;;
66559;SDS011;53413;49.878;8.142;2022-10-31T02:12:22;23.13;;;8.35;;
66559;SDS011;53413;49.878;8.142;2022-10-31T02:14:47;20.23;;;7.40;;
66559;SDS011;53413;49.878;8.142;2022-10-31T02:17:13;16.73;;;7.38;;
66559;SDS011;53413;49.878;8.142;2022-10-31T02:22:28;17.45;;;7.88;;
66559;SDS011;53413;49.878;8.142;2022-10-31T02:33:28;20.95;;;7.95;;
66559;SDS011;53413;49.878;8.142;2022-10-31T02:36:04;20.73;;;7.93;;
66559;SDS011;53413;49.878;8.142;2022-10-31T02:43:49;21.40;;;8.13;;
66559;SDS011;53413;49.878;8.142;2022-10-31T02:49:29;21.05;;;9.25;;
66559;SDS011;53413;49.878;8.142;2022-10-31T02:52:18;23.23;;;8.82;;
66559;SDS011;53413;49.878;8.142;2022-10-31T02:54:44;19.52;;;8.05;;
66559;SDS011;53413;49.878;8.142;2022-10-31T02:57:11;21.10;;;8.37;;
66559;SDS011;53413;49.878;8.142;2022-10-31T02:59:38;20.52;;;8.98;;
66559;SDS011;53413;49.878;8.142;2022-10-31T03:02:27;21.73;;;9.60;;
66559;SDS011;53413;49.878;8.142;2022-10-31T03:05:34;21.55;;;8.20;;
66559;SDS011;53413;49.878;8.142;2022-10-31T03:08:32;19.00;;;8.05;;
66559;SDS011;53413;49.878;8.142;2022-10-31T03:11:11;20.67;;;8.13;;
66559;SDS011;53413;49.878;8.142;2022-10-31T03:16:11;19.30;;;8.33;;
66559;SDS011;53413;49.878;8.142;2022-10-31T03:18:46;19.48;;;8.32;;
66559;SDS011;53413;49.878;8.142;2022-10-31T03:21:21;22.02;;;9.20;;
66559;SDS011;53413;49.878;8.142;2022-10-31T03:23:57;19.23;;;8.20;;
66559;SDS011;53413;49.878;8.142;2022-10-31T03:26:25;18.33;;;8.15;;
66559;SDS011;53413;49.878;8.142;2022-10-31T03:28:52;22.10;;;9.47;;
66559;SDS011;53413;49.878;8.142;2022-10-31T03:31:20;20.40;;;8.02;;
66559;SDS011;53413;49.878;8.142;2022-10-31T03:33:50;21.35;;;8.23;;
66559;SDS011;53413;49.878;8.142;2022-10-31T03:36:17;18.10;;;8.10;;
66559;SDS011;53413;49.878;8.142;2022-10-31T03:38:44;17.75;;;8.18;;
66559;SDS011;53413;49.878;8.142;2022-10-31T03:41:13;20.17;;;8.32;;
66559;SDS011;53413;49.878;8.142;2022-10-31T03:43:46;19.75;;;7.68;;
66559;SDS011;53413;49.878;8.142;2022-10-31T03:46:19;20.05;;;8.32;;
66559;SDS011;53413;49.878;8.142;2022-10-31T03:48:46;18.37;;;8.03;;
66559;SDS011;53413;49.878;8.142;2022-10-31T03:51:15;21.80;;;8.50;;
66559;SDS011;53413;49.878;8.142;2022-10-31T03:53:52;20.23;;;7.70;;
66559;SDS011;53413;49.878;8.142;2022-10-31T03:56:25;20.83;;;8.10;;
66559;SDS011;53413;49.878;8.142;2022-10-31T03:59:02;18.77;;;8.00;;
66559;SDS011;53413;49.878;8.142;2022-10-31T04:01:32;18.45;;;7.85;;
66559;SDS011;53413;49.878;8.142;2022-10-31T04:04:01;17.33;;;7.85;;
66559;SDS011;53413;49.878;8.142;2022-10-31T04:06:27;21.23;;;8.23;;
66559;SDS011;53413;49.878;8.142;2022-10-31T04:08:56;20.63;;;7.95;;
66559;SDS011;53413;49.878;8.142;2022-10-31T04:11:25;20.88;;;8.20;;
66559;SDS011;53413;49.878;8.142;2022-10-31T04:13:55;17.73;;;7.45;;
66559;SDS011;53413;49.878;8.142;2022-10-31T04:16:22;17.50;;;7.40;;
66559;SDS011;53413;49.878;8.142;2022-10-31T04:18:49;21.07;;;7.53;;
66559;SDS011;53413;49.878;8.142;2022-10-31T04:21:15;20.23;;;8.77;;
66559;SDS011;53413;49.878;8.142;2022-10-31T04:23:41;16.50;;;8.00;;
66559;SDS011;53413;49.878;8.142;2022-10-31T04:26:07;18.73;;;8.10;;
66559;SDS011;53413;49.878;8.142;2022-10-31T04:28:35;18.70;;;7.53;;
66559;SDS011;53413;49.878;8.142;2022-10-31T04:31:00;19.83;;;7.50;;
66559;SDS011;53413;49.878;8.142;2022-10-31T04:33:26;20.48;;;8.07;;
66559;SDS011;53413;49.878;8.142;2022-10-31T04:35:51;21.43;;;8.40;;
66559;SDS011;53413;49.878;8.142;2022-10-31T04:38:16;20.97;;;8.73;;
66559;SDS011;53413;49.878;8.142;2022-10-31T04:40:42;20.93;;;9.43;;
66559;SDS011;53413;49.878;8.142;2022-10-31T04:43:07;20.90;;;8.70;;
66559;SDS011;53413;49.878;8.142;2022-10-31T04:45:32;23.03;;;10.17;;
66559;SDS011;53413;49.878;8.142;2022-10-31T04:47:58;25.07;;;9.30;;
66559;SDS011;53413;49.878;8.142;2022-10-31T04:50:23;23.60;;;9.43;;
66559;SDS011;53413;49.878;8.142;2022-10-31T04:52:48;24.88;;;10.32;;
66559;SDS011;53413;49.878;8.142;2022-10-31T04:55:14;22.48;;;9.38;;
66559;SDS011;53413;49.878;8.142;2022-10-31T04:57:43;21.37;;;9.20;;
66559;SDS011;53413;49.878;8.142;2022-10-31T05:00:11;23.55;;;9.63;;
66559;SDS011;53413;49.878;8.142;2022-10-31T05:02:47;24.08;;;9.80;;
66559;SDS011;53413;49.878;8.142;2022-10-31T05:05:14;22.00;;;9.35;;
66559;SDS011;53413;49.878;8.142;2022-10-31T05:07:44;21.77;;;9.95;;
66559;SDS011;53413;49.878;8.142;2022-10-31T05:10:11;24.67;;;10.63;;
66559;SDS011;53413;49.878;8.142;2022-10-31T05:12:44;23.30;;;9.68;;
66559;SDS011;53413;49.878;8.142;2022-10-31T05:15:12;24.20;;;9.85;;
66559;SDS011;53413;49.878;8.142;2022-10-31T05:17:38;23.25;;;10.05;;
66559;SDS011;53413;49.878;8.142;2022-10-31T05:20:03;20.00;;;9.23;;
66559;SDS011;53413;49.878;8.142;2022-10-31T05:22:29;20.43;;;9.40;;
66559;SDS011;53413;49.878;8.142;2022-10-31T05:24:54;18.77;;;8.10;;
66559;SDS011;53413;49.878;8.142;2022-10-31T05:27:20;19.43;;;7.90;;
66559;SDS011;53413;49.878;8.142;2022-10-31T05:29:45;16.95;;;8.30;;
66559;SDS011;53413;49.878;8.142;2022-10-31T05:32:11;19.93;;;8.93;;
66559;SDS011;53413;49.878;8.142;2022-10-31T05:34:36;18.80;;;8.33;;
66559;SDS011;53413;49.878;8.142;2022-10-31T05:37:01;18.10;;;8.00;;
66559;SDS011;53413;49.878;8.142;2022-10-31T05:39:27;17.00;;;7.70;;
66559;SDS011;53413;49.878;8.142;2022-10-31T05:41:52;19.17;;;7.50;;
66559;SDS011;53413;49.878;8.142;2022-10-31T05:44:17;14.02;;;6.18;;
66559;SDS011;53413;49.878;8.142;2022-10-31T05:46:43;14.27;;;6.53;;
66559;SDS011;53413;49.878;8.142;2022-10-31T05:49:08;16.87;;;7.10;;
66559;SDS011;53413;49.878;8.142;2022-10-31T05:51:33;16.30;;;7.47;;
66559;SDS011;53413;49.878;8.142;2022-10-31T05:53:59;16.03;;;7.00;;
66559;SDS011;53413;49.878;8.142;2022-10-31T05:56:24;20.10;;;7.90;;
66559;SDS011;53413;49.878;8.142;2022-10-31T05:58:51;23.47;;;8.63;;
66559;SDS011;53413;49.878;8.142;2022-10-31T06:01:16;16.45;;;7.60;;
66559;SDS011;53413;49.878;8.142;2022-10-31T06:03:41;16.00;;;7.30;;
66559;SDS011;53413;49.878;8.142;2022-10-31T06:06:07;17.70;;;8.03;;
66559;SDS011;53413;49.878;8.142;2022-10-31T06:08:32;18.07;;;8.27;;
66559;SDS011;53413;49.878;8.142;2022-10-31T06:10:57;16.50;;;8.00;;
66559;SDS011;53413;49.878;8.142;2022-10-31T06:13:23;18.07;;;8.50;;
66559;SDS011;53413;49.878;8.142;2022-10-31T06:15:48;18.03;;;8.10;;
66559;SDS011;53413;49.878;8.142;2022-10-31T06:18:13;20.90;;;8.30;;
66559;SDS011;53413;49.878;8.142;2022-10-31T06:20:38;18.87;;;8.40;;
66559;SDS011;53413;49.878;8.142;2022-10-31T06:23:04;20.03;;;8.77;;
66559;SDS011;53413;49.878;8.142;2022-10-31T06:25:29;17.00;;;8.13;;
66559;SDS011;53413;49.878;8.142;2022-10-31T06:27:55;18.20;;;8.60;;
66559;SDS011;53413;49.878;8.142;2022-10-31T06:30:20;18.77;;;7.75;;
66559;SDS011;53413;49.878;8.142;2022-10-31T06:32:46;16.27;;;7.40;;
66559;SDS011;53413;49.878;8.142;2022-10-31T06:35:11;13.57;;;6.97;;
66559;SDS011;53413;49.878;8.142;2022-10-31T06:37:37;15.80;;;7.30;;
66559;SDS011;53413;49.878;8.142;2022-10-31T06:40:02;15.57;;;7.05;;
66559;SDS011;53413;49.878;8.142;2022-10-31T06:42:28;16.47;;;7.20;;
66559;SDS011;53413;49.878;8.142;2022-10-31T06:44:53;15.07;;;6.90;;
66559;SDS011;53413;49.878;8.142;2022-10-31T06:47:19;14.30;;;6.72;;
66559;SDS011;53413;49.878;8.142;2022-10-31T06:49:44;15.37;;;7.00;;
66559;SDS011;53413;49.878;8.142;2022-10-31T06:52:09;14.47;;;6.87;;
66559;SDS011;53413;49.878;8.142;2022-10-31T06:54:37;14.63;;;7.07;;
66559;SDS011;53413;49.878;8.142;2022-10-31T06:57:02;15.45;;;6.80;;
66559;SDS011;53413;49.878;8.142;2022-10-31T06:59:28;16.77;;;7.40;;
66559;SDS011;53413;49.878;8.142;2022-10-31T07:01:53;15.50;;;7.40;;
66559;SDS011;53413;49.878;8.142;2022-10-31T07:04:18;16.37;;;7.30;;
66559;SDS011;53413;49.878;8.142;2022-10-31T07:06:44;16.97;;;8.00;;
66559;SDS011;53413;49.878;8.142;2022-10-31T07:09:09;16.20;;;7.73;;
66559;SDS011;53413;49.878;8.142;2022-10-31T07:11:34;16.37;;;6.87;;
66559;SDS011;53413;49.878;8.142;2022-10-31T07:14:00;14.32;;;6.80;;
66559;SDS011;53413;49.878;8.142;2022-10-31T07:16:25;13.40;;;6.50;;
66559;SDS011;53413;49.878;8.142;2022-10-31T07:18:50;13.70;;;6.80;;
66559;SDS011;53413;49.878;8.142;2022-10-31T07:21:16;13.90;;;6.93;;
66559;SDS011;53413;49.878;8.142;2022-10-31T07:23:41;15.10;;;7.60;;
66559;SDS011;53413;49.878;8.142;2022-10-31T07:26:07;13.30;;;6.80;;
66559;SDS011;53413;49.878;8.142;2022-10-31T07:28:34;14.85;;;6.53;;
66559;SDS011;53413;49.878;8.142;2022-10-31T07:30:59;14.17;;;6.93;;
66559;SDS011;53413;49.878;8.142;2022-10-31T07:33:25;12.53;;;6.93;;
66559;SDS011;53413;49.878;8.142;2022-10-31T07:35:53;16.08;;;6.97;;
66559;SDS011;53413;49.878;8.142;2022-10-31T07:38:18;13.27;;;6.30;;
66559;SDS011;53413;49.878;8.142;2022-10-31T07:40:44;11.50;;;6.10;;
66559;SDS011;53413;49.878;8.142;2022-10-31T07:43:15;13.63;;;6.20;;
66559;SDS011;53413;49.878;8.142;2022-10-31T07:45:40;11.63;;;5.97;;
66559;SDS011;53413;49.878;8.142;2022-10-31T07:48:06;13.20;;;6.20;;
66559;SDS011;53413;49.878;8.142;2022-10-31T07:50:31;10.80;;;5.97;;
66559;SDS011;53413;49.878;8.142;2022-10-31T07:53:05;11.57;;;6.68;;
66559;SDS011;53413;49.878;8.142;2022-10-31T07:55:30;11.85;;;6.38;;
66559;SDS011;53413;49.878;8.142;2022-10-31T07:57:57;12.80;;;6.13;;
66559;SDS011;53413;49.878;8.142;2022-10-31T08:00:26;12.43;;;5.93;;
66559;SDS011;53413;49.878;8.142;2022-10-31T08:02:56;11.32;;;6.47;;
66559;SDS011;53413;49.878;8.142;2022-10-31T08:05:26;13.27;;;6.75;;
66559;SDS011;53413;49.878;8.142;2022-10-31T08:07:52;12.10;;;6.28;;
66559;SDS011;53413;49.878;8.142;2022-10-31T08:10:17;13.35;;;6.68;;
66559;SDS011;53413;49.878;8.142;2022-10-31T08:12:43;13.57;;;6.73;;
66559;SDS011;53413;49.878;8.142;2022-10-31T08:15:08;13.03;;;6.63;;
66559;SDS011;53413;49.878;8.142;2022-10-31T08:17:35;11.52;;;6.28;;
66559;SDS011;53413;49.878;8.142;2022-10-31T08:20:00;16.40;;;7.15;;
66559;SDS011;53413;49.878;8.142;2022-10-31T08:22:26;12.50;;;7.00;;
66559;SDS011;53413;49.878;8.142;2022-10-31T08:24:51;14.17;;;7.50;;
66559;SDS011;53413;49.878;8.142;2022-10-31T08:27:16;16.10;;;7.70;;
66559;SDS011;53413;49.878;8.142;2022-10-31T08:29:42;15.67;;;8.10;;
66559;SDS011;53413;49.878;8.142;2022-10-31T08:32:07;13.68;;;8.07;;
66559;SDS011;53413;49.878;8.142;2022-10-31T08:34:32;14.07;;;7.90;;
66559;SDS011;53413;49.878;8.142;2022-10-31T08:36:58;16.90;;;8.47;;
66559;SDS011;53413;49.878;8.142;2022-10-31T08:39:23;18.50;;;8.43;;
66559;SDS011;53413;49.878;8.142;2022-10-31T08:41:48;16.17;;;8.27;;
66559;SDS011;53413;49.878;8.142;2022-10-31T08:44:15;19.17;;;8.60;;
66559;SDS011;53413;49.878;8.142;2022-10-31T08:46:40;16.47;;;8.50;;
66559;SDS011;53413;49.878;8.142;2022-10-31T08:49:06;17.90;;;8.37;;
66559;SDS011;53413;49.878;8.142;2022-10-31T08:51:31;15.65;;;8.27;;
66559;SDS011;53413;49.878;8.142;2022-10-31T08:53:57;18.48;;;8.45;;
66559;SDS011;53413;49.878;8.142;2022-10-31T08:56:22;18.17;;;8.67;;
66559;SDS011;53413;49.878;8.142;2022-10-31T08:58:48;16.73;;;8.30;;
66559;SDS011;53413;49.878;8.142;2022-10-31T09:01:13;18.35;;;8.85;;
66559;SDS011;53413;49.878;8.142;2022-10-31T09:03:39;19.87;;;8.93;;
66559;SDS011;53413;49.878;8.142;2022-10-31T09:06:04;16.33;;;8.63;;
66559;SDS011;53413;49.878;8.142;2022-10-31T09:08:33;16.20;;;8.50;;
66559;SDS011;53413;49.878;8.142;2022-10-31T09:10:59;18.73;;;9.27;;
66559;SDS011;53413;49.878;8.142;2022-10-31T09:13:25;17.63;;;8.85;;
66559;SDS011;53413;49.878;8.142;2022-10-31T09:15:51;17.63;;;8.70;;
66559;SDS011;53413;49.878;8.142;2022-10-31T09:18:17;18.77;;;9.33;;
66559;SDS011;53413;49.878;8.142;2022-10-31T09:20:45;18.50;;;8.55;;
66559;SDS011;53413;49.878;8.142;2022-10-31T09:23:13;17.27;;;8.68;;
66559;SDS011;53413;49.878;8.142;2022-10-31T09:25:40;19.60;;;9.13;;
66559;SDS011;53413;49.878;8.142;2022-10-31T09:28:07;16.48;;;9.07;;
66559;SDS011;53413;49.878;8.142;2022-10-31T09:30:35;18.40;;;9.25;;
66559;SDS011;53413;49.878;8.142;2022-10-31T09:33:05;18.60;;;9.47;;
66559;SDS011;53413;49.878;8.142;2022-10-31T09:35:32;19.83;;;10.05;;
66559;SDS011;53413;49.878;8.142;2022-10-31T09:38:02;20.85;;;9.98;;
66559;SDS011;53413;49.878;8.142;2022-10-31T09:40:31;20.98;;;10.05;;
66559;SDS011;53413;49.878;8.142;2022-10-31T09:46:15;19.92;;;9.38;;
66559;SDS011;53413;49.878;8.142;2022-10-31T09:52:01;19.05;;;9.43;;
66559;SDS011;53413;49.878;8.142;2022-10-31T09:57:08;20.45;;;10.07;;
66559;SDS011;53413;49.878;8.142;2022-10-31T09:59:39;20.95;;;9.95;;
66559;SDS011;53413;49.878;8.142;2022-10-31T10:05:13;20.73;;;9.95;;
66559;SDS011;53413;49.878;8.142;2022-10-31T10:07:53;21.17;;;9.98;;
66559;SDS011;53413;49.878;8.142;2022-10-31T10:10:29;18.25;;;10.05;;
66559;SDS011;53413;49.878;8.142;2022-10-31T10:13:59;17.20;;;9.90;;
66559;SDS011;53413;49.878;8.142;2022-10-31T10:24:17;21.13;;;10.75;;
66559;SDS011;53413;49.878;8.142;2022-10-31T10:26:54;19.55;;;10.88;;
66559;SDS011;53413;49.878;8.142;2022-10-31T10:29:31;20.63;;;10.95;;
66559;SDS011;53413;49.878;8.142;2022-10-31T10:32:06;18.58;;;10.18;;
66559;SDS011;53413;49.878;8.142;2022-10-31T10:34:40;19.33;;;10.43;;
66559;SDS011;53413;49.878;8.142;2022-10-31T10:39:46;19.98;;;10.90;;
66559;SDS011;53413;49.878;8.142;2022-10-31T10:42:16;23.48;;;10.43;;
66559;SDS011;53413;49.878;8.142;2022-10-31T10:45:00;20.92;;;11.23;;
66559;SDS011;53413;49.878;8.142;2022-10-31T10:47:59;27.05;;;12.27;;
66559;SDS011;53413;49.878;8.142;2022-10-31T10:50:48;22.40;;;11.15;;
66559;SDS011;53413;49.878;8.142;2022-10-31T10:53:34;20.75;;;10.23;;
66559;SDS011;53413;49.878;8.142;2022-10-31T10:56:35;19.45;;;10.38;;
66559;SDS011;53413;49.878;8.142;2022-10-31T10:59:09;21.55;;;10.70;;
66559;SDS011;53413;49.878;8.142;2022-10-31T11:01:38;21.17;;;10.10;;
66559;SDS011;53413;49.878;8.142;2022-10-31T11:04:05;22.02;;;10.40;;
66559;SDS011;53413;49.878;8.142;2022-10-31T11:06:55;21.02;;;10.85;;
66559;SDS011;53413;49.878;8.142;2022-10-31T11:09:32;18.27;;;10.18;;
66559;SDS011;53413;49.878;8.142;2022-10-31T11:11:58;20.55;;;10.38;;
66559;SDS011;53413;49.878;8.142;2022-10-31T11:14:30;18.92;;;10.50;;
66559;SDS011;53413;49.878;8.142;2022-10-31T11:20:00;20.92;;;10.35;;
66559;SDS011;53413;49.878;8.142;2022-10-31T11:22:29;18.40;;;10.13;;
66559;SDS011;53413;49.878;8.142;2022-10-31T11:24:55;19.17;;;9.88;;
66559;SDS011;53413;49.878;8.142;2022-10-31T11:27:21;20.40;;;9.47;;
66559;SDS011;53413;49.878;8.142;2022-10-31T11:29:50;20.45;;;10.27;;
66559;SDS011;53413;49.878;8.142;2022-10-31T11:32:20;18.63;;;10.00;;
66559;SDS011;53413;49.878;8.142;2022-10-31T11:34:48;20.90;;;9.77;;
66559;SDS011;53413;49.878;8.142;2022-10-31T11:37:32;17.45;;;10.15;;
66559;SDS011;53413;49.878;8.142;2022-10-31T11:40:02;20.23;;;9.50;;
66559;SDS011;53413;49.878;8.142;2022-10-31T11:42:35;20.33;;;9.88;;
66559;SDS011;53413;49.878;8.142;2022-10-31T11:45:16;20.40;;;9.17;;
66559;SDS011;53413;49.878;8.142;2022-10-31T11:47:42;19.83;;;9.32;;
66559;SDS011;53413;49.878;8.142;2022-10-31T11:50:15;20.75;;;9.98;;
66559;SDS011;53413;49.878;8.142;2022-10-31T11:52:46;18.63;;;9.20;;
66559;SDS011;53413;49.878;8.142;2022-10-31T11:57:43;16.15;;;8.68;;
66559;SDS011;53413;49.878;8.142;2022-10-31T12:02:46;16.20;;;8.65;;
66559;SDS011;53413;49.878;8.142;2022-10-31T12:05:17;19.25;;;9.50;;
66559;SDS011;53413;49.878;8.142;2022-10-31T12:07:45;18.07;;;9.33;;
66559;SDS011;53413;49.878;8.142;2022-10-31T12:10:11;17.23;;;9.07;;
66559;SDS011;53413;49.878;8.142;2022-10-31T12:15:44;18.00;;;9.10;;
66559;SDS011;53413;49.878;8.142;2022-10-31T12:35:05;18.45;;;8.27;;
66559;SDS011;53413;49.878;8.142;2022-10-31T12:43:37;19.10;;;7.80;;
66559;SDS011;53413;49.878;8.142;2022-10-31T12:46:19;17.35;;;7.47;;
66559;SDS011;53413;49.878;8.142;2022-10-31T12:51:32;17.10;;;8.32;;
66559;SDS011;53413;49.878;8.142;2022-10-31T12:59:43;15.18;;;7.80;;
66559;SDS011;53413;49.878;8.142;2022-10-31T13:02:19;14.32;;;7.50;;
66559;SDS011;53413;49.878;8.142;2022-10-31T13:04:56;16.23;;;7.38;;
66559;SDS011;53413;49.878;8.142;2022-10-31T13:10:06;17.90;;;7.70;;
66559;SDS011;53413;49.878;8.142;2022-10-31T13:12:48;16.45;;;7.50;;
66559;SDS011;53413;49.878;8.142;2022-10-31T13:15:19;17.33;;;7.80;;
66559;SDS011;53413;49.878;8.142;2022-10-31T13:17:52;15.73;;;7.50;;
66559;SDS011;53413;49.878;8.142;2022-10-31T13:23:08;18.50;;;8.48;;
66559;SDS011;53413;49.878;8.142;2022-10-31T13:25:43;16.55;;;8.10;;
66559;SDS011;53413;49.878;8.142;2022-10-31T13:28:20;16.90;;;8.52;;
66559;SDS011;53413;49.878;8.142;2022-10-31T13:31:06;17.15;;;8.20;;
66559;SDS011;53413;49.878;8.142;2022-10-31T13:33:45;19.47;;;8.17;;
66559;SDS011;53413;49.878;8.142;2022-10-31T13:42:03;17.60;;;7.70;;
66559;SDS011;53413;49.878;8.142;2022-10-31T13:44:39;14.88;;;7.32;;
66559;SDS011;53413;49.878;8.142;2022-10-31T13:47:20;15.10;;;7.47;;
66559;SDS011;53413;49.878;8.142;2022-10-31T13:50:03;16.50;;;7.55;;
66559;SDS011;53413;49.878;8.142;2022-10-31T13:52:39;17.20;;;7.38;;
66559;SDS011;53413;49.878;8.142;2022-10-31T13:55:07;14.82;;;7.90;;
66559;SDS011;53413;49.878;8.142;2022-10-31T13:58:03;15.33;;;7.73;;
66559;SDS011;53413;49.878;8.142;2022-10-31T14:00:29;17.63;;;8.32;;
66559;SDS011;53413;49.878;8.142;2022-10-31T14:02:59;16.50;;;8.00;;
66559;SDS011;53413;49.878;8.142;2022-10-31T14:05:26;16.67;;;7.95;;
66559;SDS011;53413;49.878;8.142;2022-10-31T14:07:56;17.95;;;8.40;;
66559;SDS011;53413;49.878;8.142;2022-10-31T14:10:28;20.40;;;8.23;;
66559;SDS011;53413;49.878;8.142;2022-10-31T14:13:03;18.15;;;8.63;;
66559;SDS011;53413;49.878;8.142;2022-10-31T14:15:31;16.27;;;7.97;;
66559;SDS011;53413;49.878;8.142;2022-10-31T14:18:02;17.48;;;8.30;;
66559;SDS011;53413;49.878;8.142;2022-10-31T14:22:58;17.65;;;8.40;;
66559;SDS011;53413;49.878;8.142;2022-10-31T14:25:28;16.43;;;8.33;;
66559;SDS011;53413;49.878;8.142;2022-10-31T14:27:56;18.73;;;7.97;;
66559;SDS011;53413;49.878;8.142;2022-10-31T14:30:23;18.15;;;8.55;;
66559;SDS011;53413;49.878;8.142;2022-10-31T14:33:01;17.40;;;8.10;;
66559;SDS011;53413;49.878;8.142;2022-10-31T14:35:42;17.38;;;8.80;;
66559;SDS011;53413;49.878;8.142;2022-10-31T14:38:26;16.93;;;8.07;;
66559;SDS011;53413;49.878;8.142;2022-10-31T14:41:22;19.13;;;8.60;;
66559;SDS011;53413;49.878;8.142;2022-10-31T14:46:44;18.52;;;8.07;;
66559;SDS011;53413;49.878;8.142;2022-10-31T14:49:30;17.60;;;7.20;;
66559;SDS011;53413;49.878;8.142;2022-10-31T14:51:58;16.97;;;7.43;;
66559;SDS011;53413;49.878;8.142;2022-10-31T14:57:04;19.48;;;8.23;;
66559;SDS011;53413;49.878;8.142;2022-10-31T14:59:40;20.00;;;8.10;;
66559;SDS011;53413;49.878;8.142;2022-10-31T15:04:41;15.15;;;7.72;;
66559;SDS011;53413;49.878;8.142;2022-10-31T15:09:43;22.75;;;9.13;;
66559;SDS011;53413;49.878;8.142;2022-10-31T15:12:21;23.00;;;8.90;;
66559;SDS011;53413;49.878;8.142;2022-10-31T15:14:49;21.95;;;9.18;;
66559;SDS011;53413;49.878;8.142;2022-10-31T15:17:14;21.00;;;9.20;;
66559;SDS011;53413;49.878;8.142;2022-10-31T15:19:40;19.48;;;9.07;;
66559;SDS011;53413;49.878;8.142;2022-10-31T15:22:10;23.73;;;9.30;;
66559;SDS011;53413;49.878;8.142;2022-10-31T15:24:42;20.27;;;9.02;;
66559;SDS011;53413;49.878;8.142;2022-10-31T15:27:13;18.85;;;9.82;;
66559;SDS011;53413;49.878;8.142;2022-10-31T15:29:48;16.17;;;9.03;;
66559;SDS011;53413;49.878;8.142;2022-10-31T15:34:48;26.77;;;12.63;;
66559;SDS011;53413;49.878;8.142;2022-10-31T15:37:17;27.75;;;12.45;;
66559;SDS011;53413;49.878;8.142;2022-10-31T15:39:44;22.33;;;11.88;;
66559;SDS011;53413;49.878;8.142;2022-10-31T15:42:21;24.50;;;12.33;;
66559;SDS011;53413;49.878;8.142;2022-10-31T15:44:56;31.52;;;15.63;;
66559;SDS011;53413;49.878;8.142;2022-10-31T15:47:26;20.50;;;9.95;;
66559;SDS011;53413;49.878;8.142;2022-10-31T15:49:55;20.02;;;9.30;;
66559;SDS011;53413;49.878;8.142;2022-10-31T15:54:58;20.47;;;8.90;;
66559;SDS011;53413;49.878;8.142;2022-10-31T15:57:25;19.73;;;8.50;;
66559;SDS011;53413;49.878;8.142;2022-10-31T15:59:51;21.38;;;9.32;;
66559;SDS011;53413;49.878;8.142;2022-10-31T16:02:18;20.20;;;9.50;;
66559;SDS011;53413;49.878;8.142;2022-10-31T16:04:53;22.63;;;10.65;;
66559;SDS011;53413;49.878;8.142;2022-10-31T16:07:23;23.73;;;11.38;;
66559;SDS011;53413;49.878;8.142;2022-10-31T16:09:59;35.63;;;16.88;;
66559;SDS011;53413;49.878;8.142;2022-10-31T16:12:29;26.75;;;13.80;;
66559;SDS011;53413;49.878;8.142;2022-10-31T16:14:59;23.40;;;11.30;;
66559;SDS011;53413;49.878;8.142;2022-10-31T16:17:25;23.52;;;10.90;;
66559;SDS011;53413;49.878;8.142;2022-10-31T16:19:59;20.40;;;9.82;;
66559;SDS011;53413;49.878;8.142;2022-10-31T16:22:36;21.67;;;9.80;;
66559;SDS011;53413;49.878;8.142;2022-10-31T16:25:10;20.95;;;10.27;;
66559;SDS011;53413;49.878;8.142;2022-10-31T16:27:39;21.35;;;11.13;;
66559;SDS011;53413;49.878;8.142;2022-10-31T16:32:55;21.75;;;10.10;;
66559;SDS011;53413;49.878;8.142;2022-10-31T16:35:27;24.65;;;10.55;;
66559;SDS011;53413;49.878;8.142;2022-10-31T16:37:59;26.23;;;13.70;;
66559;SDS011;53413;49.878;8.142;2022-10-31T16:40:25;20.30;;;10.93;;
66559;SDS011;53413;49.878;8.142;2022-10-31T16:42:50;22.27;;;11.03;;
66559;SDS011;53413;49.878;8.142;2022-10-31T16:45:20;22.60;;;11.90;;
66559;SDS011;53413;49.878;8.142;2022-10-31T16:47:47;25.83;;;13.07;;
66559;SDS011;53413;49.878;8.142;2022-10-31T16:50:17;37.17;;;19.73;;